Terminal Aerodrome Forecast
Issued by NWS

Home | Current Version | Previous Version | Text Only | Print | Product List | Glossary On
Versions: 1 2 3 4 5 6 7 8 9 10 11 12 13 14 15
000
FTUS45 KABQ 222300
TAFSAF
TAF
KSAF 222337Z 2300/2324 35009KT P6SM SCT050 SCT100
     FM230200 02006KT P6SM VCTS SCT050CB BKN110
      TEMPO 2302/2303 VRB15G23KT 6SM SHRA BKN040
     FM230400 35005KT P6SM SCT110
     FM231700 25010KT P6SM SKC=

USA.gov is the U.S. government's official web portal to all federal, state and local government web resources and services.